Fremont, MI

2:22 PM EST on November 20, 2019 (GMT -0500)
Fremont

Weather History for KFFX - July, 2019

Change the Weather History Date:

Wednesday, July 31, 2019

  Actual Average (WUND) Record (WUND)
Temperature  
Mean Temperature 63 °F -  
Max Temperature 77 °F - - (-1)
Min Temperature 49 °F - - (-1)
Degree Days  
Heating Degree Days 2    
Growing Degree Days 13 (Base 50)    
Moisture  
Dew Point 47 °F    
Average Humidity 61    
Maximum Humidity 100    
Minimum Humidity 22    
Precipitation  
Precipitation 0.00 in - - ()
Sea Level Pressure  
Sea Level Pressure 30.16 in    
Wind  
Wind Speed 5 mph (North)    
Max Wind Speed 12 mph    
Max Gust Speed 16 mph    
Visibility 10 miles    
Events      
Averages and records for this station are not official NWS values.
T = Trace of Precipitation, MM = Missing Value Source: NWS Daily Summary

Daily Weather History Graph

Daily Weather History Graph

Search for Another Location

Airport or City:

Astronomy

Jul. 31, 2019 Rise Set
Actual Time 6:32 AM EDT 9:07 PM EDT
Civil Twilight 5:59 AM EDT 9:40 PM EDT
Nautical Twilight 5:18 AM EDT 10:21 PM EDT
Astronomical Twilight 4:32 AM EDT 11:07 PM EDT
Moon 5:43 AM EDT (7/31) 9:07 PM EDT (7/31)
Length of Visible Light 15h 40m
Length of Day
14h 35m
Waning Crescent, 0% of the Moon is Illuminated
Jul 31
Waning Crescent
Jul 31
New
Aug 7
First Quarter
Aug 15
Full
Aug 23
Last Quarter

Hourly Weather History & Observations

Time (EDT) Temp. Dew Point Humidity Pressure Visibility Wind Dir Wind Speed Gust Speed Precip Events Conditions
12:15 AM 58.3 °F 52.7 °F 82% 30.10 in 10.0 mi NE 4.6 mph - N/A   Clear
12:20 AM 58.3 °F 52.7 °F 82% 30.11 in 10.0 mi NE 5.8 mph - N/A   Clear
12:38 AM 58.1 °F 53.2 °F 84% 30.11 in 10.0 mi NE 5.8 mph - N/A   Clear
12:56 AM 58.1 °F 52.7 °F 82% 30.11 in 10.0 mi NNE 5.8 mph - N/A   Clear
1:15 AM 58.1 °F 52.2 °F 81% 30.11 in 10.0 mi NNE 4.6 mph - N/A   Clear
1:16 AM 57.9 °F 52.2 °F 81% 30.11 in 10.0 mi NNE 4.6 mph - N/A   Clear
1:35 AM 57.2 °F 52.2 °F 83% 30.11 in 10.0 mi NNE 3.5 mph - N/A   Clear
1:59 AM 56.1 °F 53.1 °F 89% 30.11 in 10.0 mi North 4.6 mph - N/A   Clear
2:17 AM 55.2 °F 53.2 °F 93% 30.11 in 10.0 mi NE 3.5 mph - N/A   Clear
2:35 AM 55.9 °F 53.1 °F 90% 30.11 in 10.0 mi NNE 4.6 mph - N/A   Clear
2:36 AM 55.9 °F 53.1 °F 90% 30.11 in 10.0 mi NNE 4.6 mph - N/A   Clear
2:55 AM 55.4 °F 52.9 °F 91% 30.11 in 10.0 mi NNE 3.5 mph - N/A   Clear
2:56 AM 55.6 °F 52.9 °F 91% 30.11 in 10.0 mi NNE 4.6 mph - N/A   Clear
3:15 AM 53.8 °F 52.2 °F 94% 30.11 in 10.0 mi North 3.5 mph - N/A   Clear
3:39 AM 53.6 °F 52.3 °F 95% 30.12 in 10.0 mi North 3.5 mph - N/A   Clear
3:57 AM 53.1 °F 51.8 °F 95% 30.13 in 10.0 mi Calm Calm - N/A   Clear
4:15 AM 52.0 °F 51.4 °F 98% 30.13 in 10.0 mi North 4.6 mph - N/A   Clear
4:35 AM 52.7 °F 52.0 °F 97% 30.14 in 10.0 mi Calm Calm - N/A   Clear
4:55 AM 52.3 °F 51.8 °F 98% 30.14 in 10.0 mi Calm Calm - N/A   Clear
5:00 AM 52.3 °F 52.0 °F 99% 30.15 in 10.0 mi North 3.5 mph - N/A   Clear
5:18 AM 52.0 °F 51.6 °F 99% 30.15 in 10.0 mi Calm Calm - N/A   Clear
5:36 AM 51.6 °F 51.3 °F 99% 30.15 in 10.0 mi Calm Calm - N/A   Clear
5:55 AM 49.8 °F 49.6 °F 99% 30.15 in 10.0 mi North 4.6 mph - N/A   Clear
6:15 AM 50.4 °F 50.4 °F 100% 30.15 in 10.0 mi North 4.6 mph - N/A   Clear
6:39 AM 50.2 °F 50.2 °F 100% 30.16 in 10.0 mi North 3.5 mph - N/A   Clear
6:57 AM 50.2 °F 50.2 °F 100% 30.16 in 10.0 mi North 4.6 mph - N/A   Clear
7:15 AM 50.9 °F 50.9 °F 100% 30.17 in 10.0 mi North 4.6 mph - N/A   Clear
7:35 AM 52.5 °F 52.5 °F 100% 30.18 in 10.0 mi North 3.5 mph - N/A   Clear
7:55 AM 54.0 °F 53.6 °F 99% 30.18 in 10.0 mi North 3.5 mph - N/A   Clear
7:59 AM 54.5 °F 53.8 °F 97% 30.18 in 10.0 mi North 3.5 mph - N/A   Clear
8:17 AM 56.1 °F 53.8 °F 92% 30.18 in 10.0 mi NNE 3.5 mph - N/A   Clear
8:35 AM 57.7 °F 51.4 °F 79% 30.18 in 10.0 mi NNE 6.9 mph - N/A   Clear
8:55 AM 59.4 °F 50.2 °F 72% 30.19 in 10.0 mi NNE 6.9 mph - N/A   Clear
8:56 AM 59.4 °F 50.2 °F 72% 30.19 in 10.0 mi NNE 5.8 mph - N/A   Clear
9:15 AM 60.8 °F 49.3 °F 66% 30.19 in 10.0 mi NNE 5.8 mph - N/A   Clear
9:20 AM 60.8 °F 48.6 °F 64% 30.19 in 10.0 mi NNE 8.1 mph - N/A   Clear
9:38 AM 61.7 °F 48.6 °F 62% 30.19 in 10.0 mi NNE 5.8 mph - N/A   Clear
9:56 AM 63.0 °F 46.2 °F 54% 30.19 in 10.0 mi North 4.6 mph - N/A   Clear
10:15 AM 64.6 °F 41.5 °F 43% 30.19 in 10.0 mi North 4.6 mph - N/A   Clear
10:35 AM 65.3 °F 35.8 °F 34% 30.20 in 10.0 mi NNE 6.9 mph - N/A   Clear
10:36 AM 65.3 °F 35.6 °F 33% 30.20 in 10.0 mi North 5.8 mph - N/A   Clear
10:58 AM 66.2 °F 36.7 °F 34% 30.19 in 10.0 mi NE 5.8 mph - N/A   Clear
11:17 AM 66.9 °F 38.5 °F 35% 30.20 in 10.0 mi North 4.6 mph - N/A   Clear
11:35 AM 68.7 °F 42.3 °F 38% 30.19 in 10.0 mi North 6.9 mph - N/A   Clear
11:36 AM 69.1 °F 42.4 °F 38% 30.19 in 10.0 mi North 8.1 mph - N/A   Clear
11:55 AM 68.7 °F 38.5 °F 33% 30.19 in 10.0 mi North 5.8 mph - N/A   Clear
11:56 AM 68.7 °F 38.3 °F 33% 30.19 in 10.0 mi NE 4.6 mph - N/A   Clear
12:19 PM 70.0 °F 39.0 °F 32% 30.19 in 10.0 mi North 9.2 mph - N/A   Clear
12:37 PM 70.9 °F 38.7 °F 31% 30.18 in 10.0 mi North 11.5 mph 16.1 mph N/A   Clear
12:55 PM 70.9 °F 37.4 °F 29% 30.18 in 10.0 mi North 10.4 mph - N/A   Clear
1:15 PM 72.0 °F 38.1 °F 29% 30.18 in 10.0 mi North 8.1 mph - N/A   Clear
1:35 PM 72.7 °F 38.7 °F 29% 30.18 in 10.0 mi North 8.1 mph - N/A   Clear
1:58 PM 73.8 °F 37.9 °F 27% 30.18 in 10.0 mi North 9.2 mph - N/A   Clear
2:16 PM 74.3 °F 36.1 °F 25% 30.18 in 10.0 mi North 5.8 mph - N/A   Clear
2:35 PM 74.5 °F 37.9 °F 27% 30.17 in 10.0 mi North 5.8 mph - N/A   Clear
2:55 PM 75.4 °F 38.7 °F 27% 30.17 in 10.0 mi NNE 5.8 mph - N/A   Clear
3:19 PM 75.9 °F 34.7 °F 22% 30.17 in 10.0 mi North 6.9 mph - N/A   Clear
3:37 PM 75.7 °F 37.6 °F 25% 30.16 in 10.0 mi Calm Calm - N/A   Clear
3:55 PM 76.6 °F 39.0 °F 26% 30.16 in 10.0 mi North 8.1 mph - N/A   Clear
3:56 PM 76.8 °F 38.8 °F 25% 30.16 in 10.0 mi North 5.8 mph - N/A   Clear
4:15 PM 77.7 °F 39.7 °F 26% 30.16 in 10.0 mi WNW 5.8 mph - N/A   Clear
4:16 PM 77.9 °F 39.4 °F 25% 30.16 in 10.0 mi West 4.6 mph - N/A   Clear
4:35 PM 77.2 °F 37.9 °F 24% 30.15 in 10.0 mi North 4.6 mph - N/A   Clear
4:40 PM 77.0 °F 37.8 °F 24% 30.16 in 10.0 mi Calm Calm - N/A   Clear
4:58 PM 77.5 °F 38.1 °F 24% 30.15 in 10.0 mi NNW 5.8 mph - N/A   Clear
5:16 PM 77.7 °F 39.4 °F 25% 30.15 in 10.0 mi NNW 4.6 mph - N/A   Clear
5:35 PM 77.5 °F 39.6 °F 26% 30.15 in 10.0 mi West 4.6 mph - N/A   Clear
5:55 PM 77.7 °F 40.5 °F 26% 30.15 in 10.0 mi WNW 5.8 mph - N/A   Clear
5:56 PM 77.9 °F 40.5 °F 26% 30.15 in 10.0 mi WNW 3.5 mph - N/A   Clear
6:19 PM 77.5 °F 40.8 °F 27% 30.14 in 10.0 mi NW 4.6 mph - N/A   Clear
6:37 PM 77.0 °F 41.2 °F 28% 30.14 in 10.0 mi North 5.8 mph - N/A   Clear
6:55 PM 76.6 °F 42.1 °F 29% 30.14 in 10.0 mi NNW 4.6 mph - N/A   Clear
6:56 PM 76.8 °F 42.6 °F 29% 30.14 in 10.0 mi North 4.6 mph - N/A   Clear
7:15 PM 76.1 °F 42.4 °F 30% 30.13 in 10.0 mi NNW 4.6 mph - N/A   Clear
7:16 PM 76.1 °F 42.4 °F 30% 30.13 in 10.0 mi NNW 3.5 mph - N/A   Clear
7:35 PM 75.6 °F 45.1 °F 34% 30.14 in 10.0 mi NNW 4.6 mph - N/A   Clear
7:40 PM 75.4 °F 46.0 °F 35% 30.14 in 10.0 mi NNW 9.2 mph - N/A   Clear
7:58 PM 72.5 °F 54.3 °F 53% 30.14 in 10.0 mi NNW 6.9 mph - N/A   Clear
8:16 PM 70.9 °F 55.4 °F 58% 30.14 in 10.0 mi NNW 5.8 mph - N/A   Clear
8:35 PM 69.4 °F 56.1 °F 62% 30.15 in 10.0 mi NNW 6.9 mph - N/A   Clear
8:36 PM 69.3 °F 56.1 °F 63% 30.15 in 10.0 mi NNW 5.8 mph - N/A   Clear
8:55 PM 67.5 °F 56.3 °F 67% 30.15 in 10.0 mi NNW 5.8 mph - N/A   Clear
8:56 PM 67.5 °F 56.3 °F 67% 30.15 in 10.0 mi NNW 5.8 mph - N/A   Clear
9:19 PM 66.2 °F 55.4 °F 68% 30.15 in 10.0 mi North 5.8 mph - N/A   Clear
9:37 PM 64.6 °F 55.0 °F 71% 30.15 in 10.0 mi North 4.6 mph - N/A   Clear
9:55 PM 63.5 °F 54.9 °F 73% 30.15 in 10.0 mi North 4.6 mph - N/A   Clear
10:15 PM 62.1 °F 54.7 °F 77% 30.16 in 10.0 mi North 4.6 mph - N/A   Clear
10:16 PM 62.1 °F 54.7 °F 77% 30.16 in 10.0 mi North 4.6 mph - N/A   Clear
10:35 PM 61.7 °F 54.5 °F 77% 30.17 in 10.0 mi North 4.6 mph - N/A   Clear
10:40 PM 61.3 °F 54.3 °F 78% 30.17 in 10.0 mi North 4.6 mph - N/A   Clear
10:58 PM 60.8 °F 54.1 °F 79% 30.17 in 10.0 mi NNW 3.5 mph - N/A   Clear
11:16 PM 60.3 °F 54.0 °F 80% 30.17 in 10.0 mi NNW 3.5 mph - N/A   Clear
11:35 PM 59.9 °F 53.8 °F 80% 30.17 in 10.0 mi Calm Calm - N/A   Clear
11:36 PM 59.9 °F 53.8 °F 80% 30.17 in 10.0 mi Calm Calm - N/A   Clear
11:55 PM 60.3 °F 53.4 °F 78% 30.17 in 10.0 mi Calm Calm - N/A   Clear